Time;durP1;ratioP1;P1;durP2;ratioP2;P2;SDS_P1;SDS_P2;PMS_P1;PMS_P2;Temp;Humidity;BMP_temperature;BMP_pressure;BME280_temperature;BME280_humidity;BME280_pressure;Samples;Min_cycle;Max_cycle;Signal;HPM_P1;HPM_P2
2021/12/28 00:01:56;;;;;;;53.33;18.85;;;;;;;6.69;100.00;99440.34;4996806;28;20018;-80
2021/12/28 00:04:22;;;;;;;41.22;18.38;;;;;;;6.69;100.00;99442.09;5019045;28;20087;-81
2021/12/28 00:06:47;;;;;;;44.50;18.27;;;;;;;6.67;100.00;99439.56;5023197;28;20049;-81
2021/12/28 00:09:13;;;;;;;35.13;17.10;;;;;;;6.68;100.00;99450.81;5022262;28;20048;-81
2021/12/28 00:11:38;;;;;;;40.22;17.70;;;;;;;6.67;100.00;99443.94;5019641;28;20047;-81
2021/12/28 00:14:06;;;;;;;35.70;16.65;;;;;;;6.66;100.00;99448.28;5005226;28;20038;-81
2021/12/28 00:17:58;;;;;;;38.80;16.08;;;;;;;6.66;100.00;99444.84;5022367;28;20026;-80
2021/12/28 00:19:16;;;;;;;37.92;15.15;;;;;;;6.65;100.00;99446.59;5023402;28;20408;-81
2021/12/28 00:21:42;;;;;;;48.25;17.65;;;;;;;6.63;100.00;99438.03;5023309;28;20064;-81
2021/12/28 00:24:07;;;;;;;50.85;15.15;;;;;;;6.63;100.00;99438.03;5021198;28;20034;-81
2021/12/28 00:26:33;;;;;;;32.63;14.98;;;;;;;6.63;100.00;99432.81;4988946;28;20080;-81
2021/12/28 00:28:58;;;;;;;38.42;14.20;;;;;;;6.63;100.00;99429.38;5021332;28;20045;-80
2021/12/28 00:31:24;;;;;;;28.85;13.23;;;;;;;6.62;100.00;99435.50;5019570;28;20097;-80
2021/12/28 00:33:49;;;;;;;44.35;13.63;;;;;;;6.62;100.00;99436.34;5022144;28;20038;-81
2021/12/28 00:36:15;;;;;;;43.83;13.75;;;;;;;6.61;100.00;99429.44;5021790;28;20061;-81
2021/12/28 00:38:40;;;;;;;36.50;13.20;;;;;;;6.60;100.00;99427.75;5006067;28;20323;-81
2021/12/28 00:41:06;;;;;;;33.33;12.23;;;;;;;6.61;100.00;99428.63;5021493;28;20217;-81
2021/12/28 00:43:31;;;;;;;36.08;12.15;;;;;;;6.60;100.00;99427.75;5005739;28;20100;-81
2021/12/28 00:45:57;;;;;;;40.15;11.63;;;;;;;6.60;100.00;99426.91;5004726;28;20101;-81
2021/12/28 00:48:22;;;;;;;34.33;12.35;;;;;;;6.59;100.00;99418.28;4989024;28;20026;-81
2021/12/28 00:50:48;;;;;;;28.17;10.45;;;;;;;6.60;100.00;99424.31;5022717;28;20136;-81
2021/12/28 00:53:13;;;;;;;28.25;10.25;;;;;;;6.58;100.00;99410.53;5005499;28;20048;-81
2021/12/28 00:55:39;;;;;;;27.45;10.30;;;;;;;6.58;100.00;99418.34;5004364;28;20053;-81
2021/12/28 00:58:05;;;;;;;39.20;11.85;;;;;;;6.57;100.00;99409.72;5021223;28;20041;-81
2021/12/28 01:00:32;;;;;;;43.40;11.88;;;;;;;6.57;100.00;99401.91;5021711;28;20132;-80
2021/12/28 01:02:58;;;;;;;37.53;10.13;;;;;;;6.57;100.00;99407.09;5021083;28;20237;-81
2021/12/28 01:05:24;;;;;;;42.22;10.98;;;;;;;6.54;100.00;99389.88;5005359;28;20100;-81
2021/12/28 01:07:49;;;;;;;36.72;9.88;;;;;;;6.57;100.00;99401.03;4988673;28;20037;-81
2021/12/28 01:10:18;;;;;;;30.92;9.95;;;;;;;6.54;100.00;99392.47;5021181;28;20375;-81
2021/12/28 01:12:44;;;;;;;33.88;9.05;;;;;;;6.54;100.00;99386.44;4989011;28;20040;-81
2021/12/28 01:15:13;;;;;;;39.25;9.50;;;;;;;6.53;100.00;99390.78;5022015;28;20062;-81
2021/12/28 01:17:38;;;;;;;29.45;8.88;;;;;;;6.53;100.00;99390.78;5005303;28;20100;-81
2021/12/28 01:20:06;;;;;;;37.45;9.82;;;;;;;6.53;100.00;99395.13;5022482;28;20057;-81
2021/12/28 01:22:31;;;;;;;19.27;8.27;;;;;;;6.52;100.00;99389.09;5021927;28;20070;-81
2021/12/28 01:24:57;;;;;;;30.48;9.88;;;;;;;6.52;100.00;99383.06;5020445;28;20104;-81
2021/12/28 01:27:22;;;;;;;24.40;8.50;;;;;;;6.52;100.00;99393.47;5021403;28;20045;-80
2021/12/28 01:29:48;;;;;;;35.97;9.27;;;;;;;6.52;100.00;99388.25;5020906;28;20049;-81
2021/12/28 01:32:14;;;;;;;33.78;8.45;;;;;;;6.51;100.00;99381.38;5020897;28;20062;-81
2021/12/28 01:34:39;;;;;;;29.15;8.32;;;;;;;6.52;100.00;99390.88;5020830;28;20348;-80
2021/12/28 01:37:04;;;;;;;23.77;7.55;;;;;;;6.53;100.00;99393.41;5004126;28;20041;-81
2021/12/28 01:39:30;;;;;;;20.65;6.95;;;;;;;6.54;100.00;99391.63;5020873;28;20029;-80
2021/12/28 01:41:55;;;;;;;30.67;7.30;;;;;;;6.54;100.00;99384.66;5020574;28;20087;-80
2021/12/28 01:44:22;;;;;;;31.08;7.10;;;;;;;6.55;100.00;99380.31;5020713;28;20159;-81
2021/12/28 01:46:47;;;;;;;41.72;7.90;;;;;;;6.57;100.00;99375.88;5020220;28;20075;-81
2021/12/28 01:49:13;;;;;;;28.48;7.05;;;;;;;6.58;100.00;99377.56;5003931;28;20061;-81
2021/12/28 01:51:38;;;;;;;33.60;7.75;;;;;;;6.60;100.00;99382.69;5020367;28;20088;-80
2021/12/28 01:54:04;;;;;;;31.20;6.97;;;;;;;6.60;100.00;99380.94;5003945;28;20072;-80
2021/12/28 01:56:38;;;;;;;31.73;6.80;;;;;;;6.62;100.00;99380.84;5020803;28;20038;-81
2021/12/28 01:59:04;;;;;;;44.03;8.07;;;;;;;6.63;100.00;99382.56;5005973;28;20037;-80
2021/12/28 02:04:53;;;;;;;40.65;6.40;;;;;;;6.64;100.00;99385.09;5017633;28;20045;-80
2021/12/28 02:07:18;;;;;;;48.83;7.45;;;;;;;6.65;100.00;99389.34;5015686;28;20057;-80
2021/12/28 02:09:43;;;;;;;33.30;6.68;;;;;;;6.64;100.00;99387.69;5021675;28;20332;-81
2021/12/28 02:12:09;;;;;;;38.08;7.25;;;;;;;6.65;100.00;99389.34;5003694;28;20080;-81
2021/12/28 02:14:36;;;;;;;44.22;7.28;;;;;;;6.66;100.00;99385.03;4987699;28;20033;-81
2021/12/28 02:17:01;;;;;;;37.45;6.88;;;;;;;6.66;100.00;99378.06;5021582;28;20105;-80
2021/12/28 02:19:26;;;;;;;34.08;6.57;;;;;;;6.66;100.00;99380.66;5021706;28;20128;-81
2021/12/28 02:21:52;;;;;;;33.17;6.40;;;;;;;6.67;100.00;99371.91;5021267;28;20101;-81
2021/12/28 02:24:17;;;;;;;44.72;6.90;;;;;;;6.68;100.00;99372.78;5019705;28;20083;-81
2021/12/28 02:26:43;;;;;;;37.78;7.10;;;;;;;6.68;100.00;99364.97;5000437;28;20281;-80
2021/12/28 02:29:08;;;;;;;44.55;6.60;;;;;;;6.68;100.00;99368.41;4987011;28;20057;-81
2021/12/28 02:31:34;;;;;;;37.22;6.82;;;;;;;6.68;100.00;99370.19;5004076;28;20072;-81
2021/12/28 02:34:01;;;;;;;43.60;6.88;;;;;;;6.70;100.00;99376.16;5003128;28;20046;-81
2021/12/28 02:36:26;;;;;;;44.38;7.85;;;;;;;6.71;100.00;99370.00;5013224;28;20053;-81
2021/12/28 02:38:52;;;;;;;29.25;6.28;;;;;;;6.71;100.00;99376.06;5021221;28;20044;-81
2021/12/28 02:41:17;;;;;;;40.63;6.30;;;;;;;6.72;100.00;99375.16;5021220;28;20038;-80
2021/12/28 02:43:45;;;;;;;45.83;6.78;;;;;;;6.73;100.00;99370.78;5003767;28;20116;-80
2021/12/28 02:46:11;;;;;;;38.67;6.82;;;;;;;6.74;100.00;99367.28;5020649;28;20126;-81
2021/12/28 02:48:37;;;;;;;36.13;6.47;;;;;;;6.75;100.00;99371.56;5003859;28;20030;-80
2021/12/28 02:51:14;;;;;;;37.20;7.25;;;;;;;6.75;100.00;99373.31;5003090;28;20118;-81
2021/12/28 02:53:39;;;;;;;41.72;6.97;;;;;;;6.74;100.00;99367.28;5003302;28;20349;-81
2021/12/28 02:56:05;;;;;;;42.60;6.95;;;;;;;6.75;100.00;99362.91;5002003;28;20292;-81
2021/12/28 02:58:33;;;;;;;46.15;6.80;;;;;;;6.75;100.00;99363.75;4987064;28;20229;-81
2021/12/28 03:01:03;;;;;;;39.53;6.83;;;;;;;6.76;100.00;99362.81;5019569;28;20236;-81
2021/12/28 03:03:29;;;;;;;39.88;7.40;;;;;;;6.77;100.00;99356.72;5019972;28;20248;-80
2021/12/28 03:05:55;;;;;;;35.25;6.35;;;;;;;6.77;100.00;99351.53;4986705;28;20233;-81
2021/12/28 03:08:22;;;;;;;35.03;6.68;;;;;;;6.79;100.00;99354.06;5003056;28;20042;-81
2021/12/28 03:10:48;;;;;;;39.58;6.65;;;;;;;6.79;100.00;99348.84;5019354;28;20076;-80
2021/12/28 03:13:15;;;;;;;41.97;6.85;;;;;;;6.79;100.00;99344.47;5019661;28;20046;-81
2021/12/28 03:15:41;;;;;;;37.42;6.68;;;;;;;6.79;100.00;99344.47;4986808;28;20026;-81
2021/12/28 03:18:06;;;;;;;36.20;6.53;;;;;;;6.81;100.00;99342.63;5020258;28;20034;-80
2021/12/28 03:20:32;;;;;;;39.17;6.30;;;;;;;6.82;100.00;99346.94;5003267;28;20038;-81
2021/12/28 03:22:57;;;;;;;36.33;6.70;;;;;;;6.83;100.00;99340.78;4986255;28;20034;-81
2021/12/28 03:25:22;;;;;;;34.00;6.43;;;;;;;6.83;100.00;99338.19;5018986;28;20336;-80
2021/12/28 03:27:48;;;;;;;47.58;6.70;;;;;;;6.85;100.00;99335.53;5019134;28;20041;-81
2021/12/28 03:30:14;;;;;;;26.25;5.68;;;;;;;6.84;100.00;99337.28;5019459;28;20030;-79
2021/12/28 03:32:40;;;;;;;45.88;7.55;;;;;;;6.86;100.00;99329.41;4984154;28;20348;-80
2021/12/28 03:35:06;;;;;;;30.83;5.53;;;;;;;6.87;100.00;99320.66;4995799;28;20058;-79
2021/12/28 03:37:31;;;;;;;38.17;7.20;;;;;;;6.88;100.00;99330.19;5022133;28;20045;-79
2021/12/28 03:39:57;;;;;;;28.38;5.75;;;;;;;6.88;100.00;99312.78;4987644;28;20261;-80
2021/12/28 03:42:23;;;;;;;26.75;5.93;;;;;;;6.89;100.00;99313.63;5020156;28;20038;-79
2021/12/28 03:44:48;;;;;;;38.42;6.63;;;;;;;6.89;100.00;99305.81;5003844;28;20332;-80
2021/12/28 03:47:14;;;;;;;44.45;7.30;;;;;;;6.90;100.00;99310.13;5020943;28;20034;-80
2021/12/28 03:49:39;;;;;;;43.28;7.75;;;;;;;6.92;100.00;99308.28;5018029;28;20050;-79
2021/12/28 03:52:06;;;;;;;35.15;7.15;;;;;;;6.91;100.00;99304.84;5017201;28;20026;-80
2021/12/28 03:54:32;;;;;;;40.08;8.30;;;;;;;6.93;100.00;99304.78;5019633;28;20260;-79
2021/12/28 03:56:58;;;;;;;39.08;8.45;;;;;;;6.95;100.00;99302.06;5002696;28;20033;-80
2021/12/28 03:59:23;;;;;;;36.78;8.85;;;;;;;6.95;100.00;99297.72;5019775;28;20042;-80
2021/12/28 04:01:48;;;;;;;48.95;8.88;;;;;;;6.97;100.00;99298.47;5019566;28;20033;-80
2021/12/28 04:04:14;;;;;;;48.53;9.50;;;;;;;6.97;100.00;99302.81;5019794;28;20038;-80
2021/12/28 04:06:39;;;;;;;37.28;9.32;;;;;;;6.98;100.00;99302.75;5020985;28;20042;-80
2021/12/28 04:09:07;;;;;;;32.53;9.45;;;;;;;7.00;100.00;99302.69;5022130;28;20029;-79
2021/12/28 04:11:32;;;;;;;40.60;9.00;;;;;;;7.00;100.00;99303.50;5023777;28;20081;-80
2021/12/28 04:14:03;;;;;;;41.45;8.70;;;;;;;7.01;100.00;99296.56;5023009;28;20029;-80
2021/12/28 04:16:29;;;;;;;35.70;8.93;;;;;;;7.02;100.00;99293.03;4988250;28;20253;-80
2021/12/28 04:18:55;;;;;;;51.00;10.10;;;;;;;7.03;100.00;99292.13;5024023;28;20072;-79
2021/12/28 04:21:20;;;;;;;44.75;9.15;;;;;;;7.03;100.00;99282.53;5024439;28;20034;-80
2021/12/28 04:23:46;;;;;;;35.35;8.15;;;;;;;7.03;100.00;99285.16;5022664;28;20057;-79
2021/12/28 04:26:11;;;;;;;40.13;9.13;;;;;;;7.05;100.00;99285.06;5022597;28;20220;-80
2021/12/28 04:28:37;;;;;;;35.95;7.97;;;;;;;7.06;100.00;99284.16;4987968;28;20033;-80
2021/12/28 04:31:02;;;;;;;40.67;8.35;;;;;;;7.07;100.00;99278.03;5006399;28;20032;-80
2021/12/28 04:33:28;;;;;;;43.92;7.68;;;;;;;7.07;100.00;99278.03;5006493;28;20037;-79
2021/12/28 04:35:54;;;;;;;38.85;7.43;;;;;;;7.07;100.00;99276.25;5006431;28;20081;-80
2021/12/28 04:38:19;;;;;;;37.90;6.90;;;;;;;7.07;100.00;99271.03;5022859;28;20049;-80
2021/12/28 04:40:45;;;;;;;51.25;7.82;;;;;;;7.09;100.00;99284.00;5023754;28;20041;-80
2021/12/28 04:43:11;;;;;;;46.75;7.10;;;;;;;7.09;100.00;99271.84;5023860;28;20049;-80
2021/12/28 04:45:37;;;;;;;43.03;6.53;;;;;;;7.12;100.00;99276.03;5022975;28;20051;-80
2021/12/28 04:48:03;;;;;;;34.00;6.43;;;;;;;7.11;100.00;99270.00;5006034;28;20048;-80
2021/12/28 04:50:29;;;;;;;32.28;6.03;;;;;;;7.12;100.00;99263.00;4989591;28;20028;-80
2021/12/28 04:52:57;;;;;;;28.52;6.03;;;;;;;7.15;100.00;99272.41;5022403;28;20235;-80
2021/12/28 04:55:23;;;;;;;27.87;6.20;;;;;;;7.15;100.00;99262.88;5023901;28;20041;-79
2021/12/28 04:57:48;;;;;;;42.35;6.95;;;;;;;7.16;100.00;99261.09;5022710;28;20037;-80
2021/12/28 05:00:19;;;;;;;35.70;6.53;;;;;;;7.16;100.00;99251.50;5022890;28;20340;-80
2021/12/28 05:02:44;;;;;;;29.42;6.03;;;;;;;7.18;100.00;99248.84;5006456;28;20096;-79
2021/12/28 05:05:10;;;;;;;32.80;6.25;;;;;;;7.20;100.00;99253.03;5006333;28;20371;-80
2021/12/28 05:07:36;;;;;;;25.25;6.43;;;;;;;7.21;100.00;99240.88;5022802;28;20532;-80
2021/12/28 05:10:02;;;;;;;33.38;7.55;;;;;;;7.23;100.00;99246.84;5022475;28;20040;-79
2021/12/28 05:12:28;;;;;;;25.73;6.60;;;;;;;7.24;100.00;99248.50;5022423;28;20370;-79
2021/12/28 05:14:54;;;;;;;24.48;6.57;;;;;;;7.26;100.00;99241.47;5005874;28;20325;-79
2021/12/28 05:17:19;;;;;;;30.77;7.97;;;;;;;7.27;100.00;99245.75;5005696;28;20091;-79
2021/12/28 05:19:45;;;;;;;34.47;7.90;;;;;;;7.28;100.00;99250.06;5022503;28;20029;-79
2021/12/28 05:22:12;;;;;;;33.47;8.07;;;;;;;7.29;100.00;99247.38;5005909;28;20049;-79
2021/12/28 05:24:38;;;;;;;30.38;7.95;;;;;;;7.30;100.00;99243.81;5022236;28;20109;-79
2021/12/28 05:27:03;;;;;;;30.05;9.45;;;;;;;7.32;100.00;99233.34;5005479;28;20026;-79
2021/12/28 05:29:29;;;;;;;37.08;8.88;;;;;;;7.34;100.00;99243.69;5005301;28;20064;-79
2021/12/28 05:31:54;;;;;;;23.75;7.78;;;;;;;7.37;100.00;99227.88;5021865;28;20232;-79
2021/12/28 05:34:20;;;;;;;24.77;8.48;;;;;;;7.37;100.00;99222.66;5021529;28;20079;-79
2021/12/28 05:36:46;;;;;;;31.45;9.30;;;;;;;7.38;100.00;99213.94;5004866;28;20041;-79
2021/12/28 05:39:11;;;;;;;27.95;8.38;;;;;;;7.38;100.00;99211.31;5022003;28;20041;-79
2021/12/28 05:41:37;;;;;;;25.52;8.40;;;;;;;7.39;100.00;99216.47;5022074;28;20034;-79
2021/12/28 05:44:02;;;;;;;37.40;9.45;;;;;;;7.41;100.00;99219.81;5021251;28;20037;-79
2021/12/28 05:46:28;;;;;;;32.03;9.23;;;;;;;7.41;100.00;99219.81;5005115;28;20037;-79
2021/12/28 05:48:53;;;;;;;20.42;8.32;;;;;;;7.42;100.00;99218.06;5021376;28;20344;-79
2021/12/28 05:51:19;;;;;;;20.02;7.03;;;;;;;7.44;100.00;99211.00;5021754;28;20038;-79
2021/12/28 05:53:44;;;;;;;23.55;9.30;;;;;;;7.44;100.00;99214.47;5004964;28;20038;-79
2021/12/28 05:56:10;;;;;;;27.88;9.90;;;;;;;7.45;100.00;99199.66;5005236;28;20041;-79
2021/12/28 05:58:35;;;;;;;26.90;9.80;;;;;;;7.45;100.00;99199.66;4989089;28;20029;-79
2021/12/28 06:01:01;;;;;;;25.42;9.30;;;;;;;7.44;100.00;99196.22;5022278;28;20351;-79
2021/12/28 06:03:27;;;;;;;26.17;8.48;;;;;;;7.45;100.00;99197.88;5001740;28;20127;-79
2021/12/28 06:05:52;;;;;;;21.13;9.77;;;;;;;7.46;100.00;99189.16;5010598;28;20045;-79
2021/12/28 06:08:18;;;;;;;25.17;9.40;;;;;;;7.47;100.00;99185.63;5020492;28;20042;-79
2021/12/28 06:10:43;;;;;;;15.70;8.00;;;;;;;7.47;100.00;99175.19;5021963;28;20045;-79
2021/12/28 06:13:08;;;;;;;17.13;8.38;;;;;;;7.47;100.00;99167.38;4988406;28;20041;-79
2021/12/28 06:15:34;;;;;;;18.40;8.75;;;;;;;7.48;100.00;99170.84;5020637;28;20040;-79
2021/12/28 06:17:59;;;;;;;23.38;8.52;;;;;;;7.49;100.00;99170.78;5022053;28;20041;-79
2021/12/28 06:20:25;;;;;;;20.20;9.10;;;;;;;7.49;100.00;99172.50;5020525;28;20059;-79
2021/12/28 06:22:50;;;;;;;23.80;9.05;;;;;;;7.50;100.00;99175.03;5001411;28;20042;-79
2021/12/28 06:25:16;;;;;;;22.83;9.00;;;;;;;7.51;100.00;99173.25;5000434;28;20044;-80
2021/12/28 06:27:41;;;;;;;21.45;9.00;;;;;;;7.53;100.00;99173.19;4987231;28;20052;-80
2021/12/28 06:30:07;;;;;;;18.83;9.57;;;;;;;7.53;100.00;99170.59;5019400;28;20088;-79
2021/12/28 06:32:33;;;;;;;21.48;9.88;;;;;;;7.53;100.00;99171.44;5003059;28;20138;-79
2021/12/28 06:34:58;;;;;;;25.80;10.68;;;;;;;7.53;100.00;99163.63;5018927;28;20049;-79
2021/12/28 06:37:24;;;;;;;20.20;10.35;;;;;;;7.55;100.00;99174.81;5014410;28;20109;-79
2021/12/28 06:39:49;;;;;;;22.63;10.77;;;;;;;7.54;100.00;99162.69;5002788;28;20051;-79
2021/12/28 06:42:14;;;;;;;22.52;10.93;;;;;;;7.56;100.00;99157.41;5018857;28;20034;-79
2021/12/28 06:44:43;;;;;;;30.42;12.48;;;;;;;7.56;100.00;99166.03;4986854;28;20204;-79
2021/12/28 06:47:08;;;;;;;29.67;12.73;;;;;;;7.56;100.00;99173.88;5018978;28;20045;-79
2021/12/28 06:49:33;;;;;;;35.92;16.02;;;;;;;7.57;100.00;99162.53;4987001;28;20034;-79
2021/12/28 06:51:59;;;;;;;40.10;16.08;;;;;;;7.59;100.00;99162.44;5018730;28;20252;-78
2021/12/28 06:54:24;;;;;;;28.92;14.52;;;;;;;7.59;100.00;99160.69;5018552;28;20034;-79
2021/12/28 06:56:50;;;;;;;50.20;20.17;;;;;;;7.60;100.00;99164.13;5002030;28;20030;-79
2021/12/28 06:59:15;;;;;;;39.45;18.20;;;;;;;7.60;100.00;99164.13;5002715;28;20057;-79
2021/12/28 07:01:41;;;;;;;61.47;23.75;;;;;;;7.61;100.00;99166.63;4998041;28;20042;-79
2021/12/28 07:04:06;;;;;;;60.17;23.58;;;;;;;7.60;100.00;99159.75;5000095;28;20224;-79
2021/12/28 07:06:31;;;;;;;53.65;23.05;;;;;;;7.61;100.00;99164.03;5016092;28;20048;-79
2021/12/28 07:08:57;;;;;;;67.68;24.63;;;;;;;7.63;100.00;99158.75;5003219;28;20049;-79
2021/12/28 07:11:22;;;;;;;71.80;26.17;;;;;;;7.62;100.00;99150.09;5019323;28;20030;-79
2021/12/28 07:13:48;;;;;;;62.47;23.58;;;;;;;7.64;100.00;99135.22;4986927;28;20030;-79
2021/12/28 07:16:13;;;;;;;67.32;25.42;;;;;;;7.63;100.00;99128.31;5003440;28;20030;-79
2021/12/28 07:18:39;;;;;;;62.00;25.40;;;;;;;7.63;100.00;99141.34;5019832;28;20037;-79
2021/12/28 07:21:04;;;;;;;54.95;24.38;;;;;;;7.64;100.00;99137.81;5019069;28;20088;-79
2021/12/28 07:23:30;;;;;;;56.22;24.33;;;;;;;7.65;100.00;99139.47;5017199;28;20229;-78
2021/12/28 07:25:56;;;;;;;56.75;24.90;;;;;;;7.66;100.00;99143.78;4998394;28;20093;-79
2021/12/28 07:28:22;;;;;;;52.17;22.92;;;;;;;7.67;100.00;99145.44;5001772;28;20131;-78
2021/12/28 07:30:47;;;;;;;52.80;23.20;;;;;;;7.68;100.00;99141.09;5003210;28;20072;-79
2021/12/28 07:33:13;;;;;;;62.08;24.52;;;;;;;7.68;100.00;99141.09;4999420;28;20086;-79
2021/12/28 07:35:38;;;;;;;53.67;23.33;;;;;;;7.69;100.00;99138.41;5020003;28;20053;-79
2021/12/28 07:38:04;;;;;;;49.63;22.20;;;;;;;7.70;100.00;99139.25;5002348;28;20092;-78
2021/12/28 07:40:29;;;;;;;54.47;22.83;;;;;;;7.71;100.00;99127.03;5022533;28;20033;-79
2021/12/28 08:06:34;;;;;;;54.53;23.75;;;;;;;7.86;100.00;99113.16;5066603;28;1307409;-75
2021/12/28 08:08:59;;;;;;;56.10;24.80;;;;;;;7.87;100.00;99107.00;5079797;28;20023;-75
2021/12/28 08:11:25;;;;;;;56.33;24.67;;;;;;;7.85;100.00;99101.88;5072186;28;20032;-75
2021/12/28 08:13:50;;;;;;;52.17;24.48;;;;;;;7.85;100.00;99106.25;5086683;28;20084;-76
2021/12/28 08:16:16;;;;;;;46.30;22.50;;;;;;;7.84;100.00;99100.22;5093279;28;20104;-76
2021/12/28 08:18:41;;;;;;;47.38;21.90;;;;;;;7.85;100.00;99098.44;5108984;28;20040;-76
2021/12/28 08:21:07;;;;;;;42.85;22.33;;;;;;;7.85;100.00;99106.25;5086430;28;20343;-76
2021/12/28 08:23:32;;;;;;;48.65;21.83;;;;;;;7.85;100.00;99103.66;5072510;28;20043;-76
2021/12/28 08:25:58;;;;;;;37.17;20.13;;;;;;;7.85;100.00;99090.63;5075197;28;20036;-76
2021/12/28 08:28:23;;;;;;;47.28;22.20;;;;;;;7.84;100.00;99095.00;5054046;28;20422;-76
2021/12/28 08:30:48;;;;;;;37.75;20.50;;;;;;;7.86;100.00;99097.53;5068095;28;20032;-76
2021/12/28 08:33:14;;;;;;;41.78;21.13;;;;;;;7.85;100.00;99091.44;5072910;28;20028;-76
2021/12/28 08:35:40;;;;;;;41.53;21.33;;;;;;;7.85;100.00;99096.66;5106224;28;20032;-77
2021/12/28 08:38:09;;;;;;;35.50;19.00;;;;;;;7.86;100.00;99087.94;5053009;28;20027;-76
2021/12/28 08:40:36;;;;;;;38.83;19.27;;;;;;;7.87;100.00;99094.81;5076227;28;20092;-76
2021/12/28 08:43:01;;;;;;;38.65;20.80;;;;;;;7.88;100.00;99075.66;5072294;28;20032;-77
2021/12/28 08:45:27;;;;;;;42.05;19.80;;;;;;;7.90;100.00;99087.75;5107809;28;20452;-76
2021/12/28 08:47:53;;;;;;;38.42;17.70;;;;;;;7.91;100.00;99082.44;5091864;28;20106;-76
2021/12/28 08:50:20;;;;;;;32.05;17.77;;;;;;;7.93;100.00;99087.56;5057721;28;20036;-76
2021/12/28 08:52:45;;;;;;;34.60;17.63;;;;;;;7.93;100.00;99082.34;5069877;28;20346;-76
2021/12/28 08:55:11;;;;;;;28.50;15.07;;;;;;;7.93;100.00;99079.75;5071606;28;20039;-76
2021/12/28 08:57:37;;;;;;;35.55;16.67;;;;;;;7.94;100.00;99078.84;5071485;28;20412;-76
2021/12/28 09:00:08;;;;;;;27.02;14.88;;;;;;;7.96;100.00;99069.16;5057911;28;20612;-76
2021/12/28 09:02:33;;;;;;;29.33;15.82;;;;;;;7.97;100.00;99065.63;5059033;28;20039;-76
2021/12/28 09:04:59;;;;;;;30.08;15.85;;;;;;;7.97;100.00;99066.47;5039233;28;20040;-76
2021/12/28 09:07:24;;;;;;;25.60;14.38;;;;;;;7.99;100.00;99059.38;5033016;28;20336;-76
2021/12/28 09:09:49;;;;;;;25.90;14.70;;;;;;;8.01;100.00;99054.91;5053263;28;20044;-76
2021/12/28 09:12:15;;;;;;;24.17;12.77;;;;;;;8.02;100.00;99061.81;5035329;28;20035;-76
2021/12/28 09:14:40;;;;;;;27.75;13.27;;;;;;;8.03;100.00;99037.41;5052603;28;20041;-76
2021/12/28 09:17:06;;;;;;;24.45;11.85;;;;;;;8.06;100.00;99052.06;5047910;28;20048;-76
2021/12/28 09:19:31;;;;;;;20.30;11.38;;;;;;;8.06;100.00;99050.28;5037348;28;20028;-76
2021/12/28 09:21:58;;;;;;;17.15;10.73;;;;;;;8.08;100.00;99047.59;5051825;28;20040;-77
2021/12/28 09:24:23;;;;;;;19.50;10.73;;;;;;;8.10;100.00;99043.13;5052731;28;20394;-77
2021/12/28 09:26:49;;;;;;;15.82;9.63;;;;;;;8.11;100.00;99044.78;5033154;28;20355;-77
2021/12/28 09:29:14;;;;;;;20.45;10.00;;;;;;;8.13;100.00;99034.25;5047412;28;20033;-76
2021/12/28 09:31:40;;;;;;;15.77;8.88;;;;;;;8.13;100.00;99034.25;5047482;28;20040;-76
2021/12/28 09:34:05;;;;;;;18.33;9.82;;;;;;;8.13;100.00;99031.66;5047519;28;20029;-76
2021/12/28 09:36:30;;;;;;;18.15;9.25;;;;;;;8.14;100.00;99038.56;5046000;28;20397;-76
2021/12/28 09:38:56;;;;;;;13.85;9.02;;;;;;;8.16;100.00;99032.31;5048955;28;20067;-76
2021/12/28 09:41:21;;;;;;;13.20;7.47;;;;;;;8.16;100.00;99032.31;5064587;28;20196;-76
2021/12/28 09:43:47;;;;;;;16.30;9.07;;;;;;;8.19;100.00;99042.56;5052861;28;20377;-76
2021/12/28 09:46:12;;;;;;;13.95;8.13;;;;;;;8.19;100.00;99020.88;5049167;28;20314;-76
2021/12/28 09:48:38;;;;;;;10.73;7.30;;;;;;;8.21;100.00;99032.88;5038559;28;20108;-76
2021/12/28 09:51:03;;;;;;;13.52;7.63;;;;;;;8.21;100.00;99021.63;5061163;28;20246;-76
2021/12/28 09:53:29;;;;;;;17.35;6.70;;;;;;;8.23;100.00;99038.84;5050149;28;20196;-76
2021/12/28 09:55:54;;;;;;;10.98;7.78;;;;;;;8.24;100.00;99022.28;5050886;28;20223;-76
2021/12/28 09:58:20;;;;;;;12.52;7.18;;;;;;;8.24;100.00;99014.44;5057077;28;20028;-76
2021/12/28 10:00:45;;;;;;;10.25;6.75;;;;;;;8.26;100.00;99017.81;5034638;28;20106;-76
2021/12/28 10:03:10;;;;;;;8.85;6.28;;;;;;;8.27;100.00;99014.25;5055773;28;20041;-76
2021/12/28 10:05:36;;;;;;;9.38;6.38;;;;;;;8.27;100.00;99022.06;5057502;28;20051;-76
2021/12/28 10:08:03;;;;;;;10.45;6.53;;;;;;;8.29;100.00;99015.94;5041533;28;20048;-76
2021/12/28 10:10:30;;;;;;;6.40;5.75;;;;;;;8.29;100.00;99018.53;5053392;28;20124;-76
2021/12/28 10:12:57;;;;;;;7.40;5.25;;;;;;;8.30;100.00;99004.59;5073107;28;20257;-76
2021/12/28 10:15:24;;;;;;;7.60;5.15;;;;;;;8.29;100.00;99002.91;5073793;28;20044;-76
2021/12/28 10:17:52;;;;;;;6.30;4.85;;;;;;;8.30;100.00;98996.75;5073892;28;20039;-76
2021/12/28 10:20:31;;;;;;;6.53;4.78;;;;;;;8.30;100.00;98994.16;5038246;28;20272;-76
2021/12/28 10:23:02;;;;;;;5.78;3.95;;;;;;;8.33;100.00;98999.16;5052304;28;20028;-76
2021/12/28 10:25:33;;;;;;;8.70;4.35;;;;;;;8.34;100.00;98999.06;5072775;28;20093;-76
2021/12/28 10:28:00;;;;;;;5.65;4.28;;;;;;;8.35;100.00;98989.47;5069846;28;20042;-76
2021/12/28 10:30:28;;;;;;;6.85;4.32;;;;;;;8.33;100.00;98986.97;5050555;28;20094;-76
2021/12/28 10:33:15;;;;;;;6.53;4.70;;;;;;;8.35;100.00;98994.69;5048824;28;20033;-77
2021/12/28 10:35:52;;;;;;;6.65;4.18;;;;;;;8.35;100.00;98989.47;5064491;28;20280;-77
2021/12/28 10:38:28;;;;;;;5.60;4.95;;;;;;;8.34;100.00;98988.63;5062189;28;20025;-77
2021/12/28 10:41:04;;;;;;;5.53;5.03;;;;;;;8.33;100.00;98986.97;5035611;28;20349;-77
2021/12/28 10:43:33;;;;;;;5.30;4.80;;;;;;;8.33;100.00;98986.13;5031442;28;20035;-76
2021/12/28 10:46:24;;;;;;;8.53;4.70;;;;;;;8.33;100.00;98983.50;5051400;28;20032;-76
2021/12/28 10:48:52;;;;;;;7.65;5.18;;;;;;;8.32;100.00;98974.84;5060050;28;20048;-77
2021/12/28 10:51:24;;;;;;;4.75;4.00;;;;;;;8.31;100.00;98977.56;5070473;28;20250;-77
2021/12/28 10:54:23;;;;;;;4.55;4.15;;;;;;;8.30;100.00;98965.47;5068841;28;20028;-77
2021/12/28 10:56:57;;;;;;;5.43;4.07;;;;;;;8.29;100.00;98980.25;5058363;28;20037;-77
2021/12/28 10:59:25;;;;;;;4.47;3.55;;;;;;;8.29;100.00;98976.81;5053210;28;20032;-77
2021/12/28 11:01:51;;;;;;;7.90;4.23;;;;;;;8.26;100.00;98963.03;5045880;28;20031;-77
2021/12/28 11:04:17;;;;;;;8.50;4.47;;;;;;;8.26;100.00;98957.81;5064164;28;20267;-77
2021/12/28 11:06:47;;;;;;;5.82;3.75;;;;;;;8.27;100.00;98956.88;5049787;28;20051;-77
2021/12/28 11:09:16;;;;;;;7.53;4.10;;;;;;;8.26;100.00;98952.59;5044349;28;20036;-77
2021/12/28 11:11:41;;;;;;;4.90;3.90;;;;;;;8.25;100.00;98948.31;5064303;28;20036;-77
2021/12/28 11:14:10;;;;;;;8.75;4.28;;;;;;;8.24;100.00;98945.78;5047945;28;20271;-77
2021/12/28 11:16:36;;;;;;;;;;;;;;;8.24;100.00;98941.44;5032306;28;20048;-77
2021/12/28 11:19:04;;;;;;;5.22;4.18;;;;;;;8.23;100.00;98936.31;5065287;28;19917;-77
2021/12/28 11:21:34;;;;;;;6.45;3.80;;;;;;;8.23;100.00;98928.47;5054307;28;20260;-77
2021/12/28 11:24:04;;;;;;;6.38;4.60;;;;;;;8.22;100.00;98932.00;5028534;28;20025;-77
2021/12/28 11:26:38;;;;;;;10.82;4.25;;;;;;;8.23;100.00;98931.91;5048230;28;20103;-77
2021/12/28 11:29:08;;;;;;;10.00;4.70;;;;;;;8.23;100.00;98924.09;5062165;28;20228;-77
2021/12/28 11:31:47;;;;;;;11.32;4.03;;;;;;;8.23;100.00;98929.31;5048523;28;20550;-77
2021/12/28 11:34:12;;;;;;;6.47;3.80;;;;;;;8.24;100.00;98925.78;5060204;28;20040;-77
2021/12/28 11:36:53;;;;;;;8.77;3.88;;;;;;;8.24;100.00;98925.78;5066563;28;20017;-77
2021/12/28 11:39:20;;;;;;;4.95;3.78;;;;;;;8.25;100.00;98910.97;5032807;28;20025;-77
2021/12/28 11:41:46;;;;;;;3.05;2.83;;;;;;;8.26;100.00;98917.88;5020949;28;20075;-77
2021/12/28 11:44:12;;;;;;;6.47;2.80;;;;;;;8.27;100.00;98941.22;5053793;28;20033;-76
2021/12/28 11:46:38;;;;;;;8.10;2.22;;;;;;;8.31;100.00;98951.47;5037103;28;20320;-76
2021/12/28 11:49:05;;;;;;;12.20;2.22;;;;;;;8.31;100.00;98962.75;5053421;28;20048;-76